sensor_id;sensor_type;location;lat;lon;timestamp;P1;durP1;ratioP1;P2;durP2;ratioP2
11671;SDS011;5892;43.412;24.612;2023-12-20T00:00:34;11.50;;;6.90;;
11671;SDS011;5892;43.412;24.612;2023-12-20T00:03:02;10.37;;;7.43;;
11671;SDS011;5892;43.412;24.612;2023-12-20T00:05:29;9.37;;;7.27;;
11671;SDS011;5892;43.412;24.612;2023-12-20T00:07:58;10.00;;;6.90;;
11671;SDS011;5892;43.412;24.612;2023-12-20T00:10:25;7.67;;;6.17;;
11671;SDS011;5892;43.412;24.612;2023-12-20T00:12:54;9.67;;;6.40;;
11671;SDS011;5892;43.412;24.612;2023-12-20T00:15:20;9.17;;;6.80;;
11671;SDS011;5892;43.412;24.612;2023-12-20T00:17:47;9.13;;;6.60;;
11671;SDS011;5892;43.412;24.612;2023-12-20T00:20:13;12.33;;;6.50;;
11671;SDS011;5892;43.412;24.612;2023-12-20T00:22:41;9.77;;;6.50;;
11671;SDS011;5892;43.412;24.612;2023-12-20T00:25:11;8.03;;;5.83;;
11671;SDS011;5892;43.412;24.612;2023-12-20T00:27:38;6.33;;;4.70;;
11671;SDS011;5892;43.412;24.612;2023-12-20T00:30:07;7.33;;;5.23;;
11671;SDS011;5892;43.412;24.612;2023-12-20T00:32:37;6.53;;;4.40;;
11671;SDS011;5892;43.412;24.612;2023-12-20T00:35:07;7.13;;;4.60;;
11671;SDS011;5892;43.412;24.612;2023-12-20T00:37:34;5.97;;;4.30;;
11671;SDS011;5892;43.412;24.612;2023-12-20T00:40:01;6.47;;;4.83;;
11671;SDS011;5892;43.412;24.612;2023-12-20T00:42:30;7.43;;;4.60;;
11671;SDS011;5892;43.412;24.612;2023-12-20T00:44:58;5.93;;;4.13;;
11671;SDS011;5892;43.412;24.612;2023-12-20T00:47:27;5.70;;;4.10;;
11671;SDS011;5892;43.412;24.612;2023-12-20T00:49:54;5.60;;;4.20;;
11671;SDS011;5892;43.412;24.612;2023-12-20T00:52:22;5.90;;;4.20;;
11671;SDS011;5892;43.412;24.612;2023-12-20T00:54:50;7.97;;;5.20;;
11671;SDS011;5892;43.412;24.612;2023-12-20T00:57:17;6.07;;;4.30;;
11671;SDS011;5892;43.412;24.612;2023-12-20T00:59:44;6.53;;;4.23;;
11671;SDS011;5892;43.412;24.612;2023-12-20T01:02:11;6.40;;;4.43;;
11671;SDS011;5892;43.412;24.612;2023-12-20T01:04:39;5.97;;;4.40;;
11671;SDS011;5892;43.412;24.612;2023-12-20T01:07:06;9.43;;;7.40;;
11671;SDS011;5892;43.412;24.612;2023-12-20T01:09:33;6.87;;;4.83;;
11671;SDS011;5892;43.412;24.612;2023-12-20T01:12:02;6.13;;;5.37;;
11671;SDS011;5892;43.412;24.612;2023-12-20T01:14:29;5.73;;;4.40;;
11671;SDS011;5892;43.412;24.612;2023-12-20T01:16:56;5.57;;;4.37;;
11671;SDS011;5892;43.412;24.612;2023-12-20T01:19:24;5.07;;;3.80;;
11671;SDS011;5892;43.412;24.612;2023-12-20T01:21:53;4.87;;;3.40;;
11671;SDS011;5892;43.412;24.612;2023-12-20T01:24:20;4.10;;;3.10;;
11671;SDS011;5892;43.412;24.612;2023-12-20T01:26:47;6.40;;;3.50;;
11671;SDS011;5892;43.412;24.612;2023-12-20T01:29:15;4.53;;;3.40;;
11671;SDS011;5892;43.412;24.612;2023-12-20T01:31:42;5.03;;;3.30;;
11671;SDS011;5892;43.412;24.612;2023-12-20T01:34:12;4.93;;;3.00;;
11671;SDS011;5892;43.412;24.612;2023-12-20T01:36:38;3.83;;;3.20;;
11671;SDS011;5892;43.412;24.612;2023-12-20T01:39:09;5.67;;;3.30;;
11671;SDS011;5892;43.412;24.612;2023-12-20T01:41:37;6.57;;;3.60;;
11671;SDS011;5892;43.412;24.612;2023-12-20T01:44:05;5.80;;;3.67;;
11671;SDS011;5892;43.412;24.612;2023-12-20T01:46:32;4.63;;;3.10;;
11671;SDS011;5892;43.412;24.612;2023-12-20T01:48:59;5.10;;;3.40;;
11671;SDS011;5892;43.412;24.612;2023-12-20T01:51:26;4.90;;;3.37;;
11671;SDS011;5892;43.412;24.612;2023-12-20T01:53:54;5.13;;;3.33;;
11671;SDS011;5892;43.412;24.612;2023-12-20T01:56:25;3.50;;;3.13;;
11671;SDS011;5892;43.412;24.612;2023-12-20T01:58:52;5.33;;;3.37;;
11671;SDS011;5892;43.412;24.612;2023-12-20T02:01:21;5.93;;;3.63;;
11671;SDS011;5892;43.412;24.612;2023-12-20T02:03:48;4.80;;;3.60;;
11671;SDS011;5892;43.412;24.612;2023-12-20T02:06:15;4.10;;;3.53;;
11671;SDS011;5892;43.412;24.612;2023-12-20T02:08:44;4.43;;;3.53;;
11671;SDS011;5892;43.412;24.612;2023-12-20T02:11:11;4.30;;;3.50;;
11671;SDS011;5892;43.412;24.612;2023-12-20T02:13:39;5.33;;;4.03;;
11671;SDS011;5892;43.412;24.612;2023-12-20T02:16:06;6.40;;;4.03;;
11671;SDS011;5892;43.412;24.612;2023-12-20T02:18:33;6.33;;;4.27;;
11671;SDS011;5892;43.412;24.612;2023-12-20T02:21:00;7.50;;;4.67;;
11671;SDS011;5892;43.412;24.612;2023-12-20T02:23:28;8.17;;;4.57;;
11671;SDS011;5892;43.412;24.612;2023-12-20T02:25:56;6.53;;;4.67;;
11671;SDS011;5892;43.412;24.612;2023-12-20T02:28:23;7.67;;;4.93;;
11671;SDS011;5892;43.412;24.612;2023-12-20T02:30:50;5.33;;;4.00;;
11671;SDS011;5892;43.412;24.612;2023-12-20T02:33:19;15.80;;;10.00;;
11671;SDS011;5892;43.412;24.612;2023-12-20T02:35:46;10.10;;;4.90;;
11671;SDS011;5892;43.412;24.612;2023-12-20T02:38:13;9.23;;;5.13;;
11671;SDS011;5892;43.412;24.612;2023-12-20T02:40:41;6.90;;;3.87;;
11671;SDS011;5892;43.412;24.612;2023-12-20T02:43:08;7.90;;;3.77;;
11671;SDS011;5892;43.412;24.612;2023-12-20T02:45:35;4.87;;;3.40;;
11671;SDS011;5892;43.412;24.612;2023-12-20T02:48:03;7.87;;;5.20;;
11671;SDS011;5892;43.412;24.612;2023-12-20T02:50:31;7.90;;;4.97;;
11671;SDS011;5892;43.412;24.612;2023-12-20T02:52:58;6.90;;;5.23;;
11671;SDS011;5892;43.412;24.612;2023-12-20T02:55:30;9.80;;;6.60;;
11671;SDS011;5892;43.412;24.612;2023-12-20T02:57:59;11.87;;;7.20;;
11671;SDS011;5892;43.412;24.612;2023-12-20T03:00:25;11.10;;;7.57;;
11671;SDS011;5892;43.412;24.612;2023-12-20T03:02:53;9.00;;;6.93;;
11671;SDS011;5892;43.412;24.612;2023-12-20T03:05:20;9.30;;;6.03;;
11671;SDS011;5892;43.412;24.612;2023-12-20T03:07:47;8.67;;;5.70;;
11671;SDS011;5892;43.412;24.612;2023-12-20T03:10:14;8.50;;;6.03;;
11671;SDS011;5892;43.412;24.612;2023-12-20T03:12:41;7.60;;;5.67;;
11671;SDS011;5892;43.412;24.612;2023-12-20T03:15:11;6.80;;;4.70;;
11671;SDS011;5892;43.412;24.612;2023-12-20T03:17:38;7.20;;;4.37;;
11671;SDS011;5892;43.412;24.612;2023-12-20T03:20:05;5.27;;;4.07;;
11671;SDS011;5892;43.412;24.612;2023-12-20T03:22:35;6.93;;;4.43;;
11671;SDS011;5892;43.412;24.612;2023-12-20T03:25:02;4.43;;;3.33;;
11671;SDS011;5892;43.412;24.612;2023-12-20T03:27:29;5.13;;;3.40;;
11671;SDS011;5892;43.412;24.612;2023-12-20T03:29:56;6.03;;;3.40;;
11671;SDS011;5892;43.412;24.612;2023-12-20T03:32:24;3.97;;;3.10;;
11671;SDS011;5892;43.412;24.612;2023-12-20T03:34:51;4.50;;;3.20;;
11671;SDS011;5892;43.412;24.612;2023-12-20T03:37:18;4.30;;;3.50;;
11671;SDS011;5892;43.412;24.612;2023-12-20T03:39:45;4.87;;;3.70;;
11671;SDS011;5892;43.412;24.612;2023-12-20T03:42:12;3.83;;;3.10;;
11671;SDS011;5892;43.412;24.612;2023-12-20T03:44:39;4.37;;;3.03;;
11671;SDS011;5892;43.412;24.612;2023-12-20T03:47:06;4.17;;;2.53;;
11671;SDS011;5892;43.412;24.612;2023-12-20T03:49:34;2.97;;;2.40;;
11671;SDS011;5892;43.412;24.612;2023-12-20T03:52:02;4.07;;;2.60;;
11671;SDS011;5892;43.412;24.612;2023-12-20T03:54:30;3.20;;;2.57;;
11671;SDS011;5892;43.412;24.612;2023-12-20T03:56:57;3.10;;;2.80;;
11671;SDS011;5892;43.412;24.612;2023-12-20T03:59:24;4.03;;;2.90;;
11671;SDS011;5892;43.412;24.612;2023-12-20T04:01:51;6.97;;;3.27;;
11671;SDS011;5892;43.412;24.612;2023-12-20T04:04:18;4.63;;;2.80;;
11671;SDS011;5892;43.412;24.612;2023-12-20T04:06:46;3.70;;;2.77;;
11671;SDS011;5892;43.412;24.612;2023-12-20T04:09:13;4.43;;;3.10;;
11671;SDS011;5892;43.412;24.612;2023-12-20T04:11:40;4.57;;;3.20;;
11671;SDS011;5892;43.412;24.612;2023-12-20T04:14:07;5.83;;;3.00;;
11671;SDS011;5892;43.412;24.612;2023-12-20T04:16:37;3.60;;;2.80;;
11671;SDS011;5892;43.412;24.612;2023-12-20T04:19:05;6.83;;;3.27;;
11671;SDS011;5892;43.412;24.612;2023-12-20T04:21:32;3.80;;;2.90;;
11671;SDS011;5892;43.412;24.612;2023-12-20T04:24:00;4.40;;;3.20;;
11671;SDS011;5892;43.412;24.612;2023-12-20T04:26:27;5.73;;;3.20;;
11671;SDS011;5892;43.412;24.612;2023-12-20T04:28:54;4.10;;;3.43;;
11671;SDS011;5892;43.412;24.612;2023-12-20T04:31:22;4.33;;;3.20;;
11671;SDS011;5892;43.412;24.612;2023-12-20T04:33:49;4.77;;;3.20;;
11671;SDS011;5892;43.412;24.612;2023-12-20T04:36:15;6.10;;;3.93;;
11671;SDS011;5892;43.412;24.612;2023-12-20T04:38:42;7.23;;;4.37;;
11671;SDS011;5892;43.412;24.612;2023-12-20T04:41:11;8.97;;;4.40;;
11671;SDS011;5892;43.412;24.612;2023-12-20T04:43:40;9.67;;;5.43;;
11671;SDS011;5892;43.412;24.612;2023-12-20T04:46:07;9.63;;;5.70;;
11671;SDS011;5892;43.412;24.612;2023-12-20T04:48:38;13.40;;;6.43;;
11671;SDS011;5892;43.412;24.612;2023-12-20T04:51:05;8.87;;;5.60;;
11671;SDS011;5892;43.412;24.612;2023-12-20T04:53:34;10.00;;;6.20;;
11671;SDS011;5892;43.412;24.612;2023-12-20T04:56:01;21.23;;;11.17;;
11671;SDS011;5892;43.412;24.612;2023-12-20T04:58:31;14.83;;;8.10;;
11671;SDS011;5892;43.412;24.612;2023-12-20T05:00:58;16.90;;;6.90;;
11671;SDS011;5892;43.412;24.612;2023-12-20T05:03:25;12.27;;;6.20;;
11671;SDS011;5892;43.412;24.612;2023-12-20T05:05:52;15.30;;;7.30;;
11671;SDS011;5892;43.412;24.612;2023-12-20T05:08:19;11.10;;;6.40;;
11671;SDS011;5892;43.412;24.612;2023-12-20T05:10:46;13.97;;;7.23;;
11671;SDS011;5892;43.412;24.612;2023-12-20T05:13:13;8.93;;;4.90;;
11671;SDS011;5892;43.412;24.612;2023-12-20T05:15:42;8.20;;;6.00;;
11671;SDS011;5892;43.412;24.612;2023-12-20T05:18:10;12.20;;;6.30;;
11671;SDS011;5892;43.412;24.612;2023-12-20T05:20:38;10.63;;;5.60;;
11671;SDS011;5892;43.412;24.612;2023-12-20T05:23:04;14.17;;;8.73;;
11671;SDS011;5892;43.412;24.612;2023-12-20T05:25:33;14.63;;;9.37;;
11671;SDS011;5892;43.412;24.612;2023-12-20T05:28:01;17.87;;;9.17;;
11671;SDS011;5892;43.412;24.612;2023-12-20T05:30:29;15.47;;;8.23;;
11671;SDS011;5892;43.412;24.612;2023-12-20T05:32:58;12.93;;;8.00;;
11671;SDS011;5892;43.412;24.612;2023-12-20T05:35:25;18.33;;;7.37;;
11671;SDS011;5892;43.412;24.612;2023-12-20T05:37:52;15.07;;;7.27;;
11671;SDS011;5892;43.412;24.612;2023-12-20T05:40:20;15.23;;;7.43;;
11671;SDS011;5892;43.412;24.612;2023-12-20T05:42:47;15.13;;;7.77;;
11671;SDS011;5892;43.412;24.612;2023-12-20T05:45:14;17.33;;;8.73;;
11671;SDS011;5892;43.412;24.612;2023-12-20T05:47:42;7.23;;;4.80;;
11671;SDS011;5892;43.412;24.612;2023-12-20T05:50:12;6.27;;;4.37;;
11671;SDS011;5892;43.412;24.612;2023-12-20T05:52:39;6.23;;;4.33;;
11671;SDS011;5892;43.412;24.612;2023-12-20T05:55:06;10.73;;;4.73;;
11671;SDS011;5892;43.412;24.612;2023-12-20T05:57:34;6.57;;;4.80;;
11671;SDS011;5892;43.412;24.612;2023-12-20T06:00:02;7.20;;;4.90;;
11671;SDS011;5892;43.412;24.612;2023-12-20T06:02:29;8.63;;;5.20;;
11671;SDS011;5892;43.412;24.612;2023-12-20T06:04:56;14.23;;;5.70;;
11671;SDS011;5892;43.412;24.612;2023-12-20T06:07:25;11.07;;;7.73;;
11671;SDS011;5892;43.412;24.612;2023-12-20T06:09:52;10.73;;;6.87;;
11671;SDS011;5892;43.412;24.612;2023-12-20T06:12:20;13.90;;;8.63;;
11671;SDS011;5892;43.412;24.612;2023-12-20T06:14:47;15.23;;;8.67;;
11671;SDS011;5892;43.412;24.612;2023-12-20T06:17:13;10.37;;;6.90;;
11671;SDS011;5892;43.412;24.612;2023-12-20T06:19:41;14.17;;;8.23;;
11671;SDS011;5892;43.412;24.612;2023-12-20T06:22:11;18.57;;;8.90;;
11671;SDS011;5892;43.412;24.612;2023-12-20T06:24:40;20.97;;;8.33;;
11671;SDS011;5892;43.412;24.612;2023-12-20T06:27:08;18.80;;;8.13;;
11671;SDS011;5892;43.412;24.612;2023-12-20T06:29:35;14.93;;;8.90;;
11671;SDS011;5892;43.412;24.612;2023-12-20T06:32:02;13.60;;;8.30;;
11671;SDS011;5892;43.412;24.612;2023-12-20T06:34:30;23.90;;;9.70;;
11671;SDS011;5892;43.412;24.612;2023-12-20T06:36:57;30.93;;;10.40;;
11671;SDS011;5892;43.412;24.612;2023-12-20T06:39:23;18.33;;;9.43;;
11671;SDS011;5892;43.412;24.612;2023-12-20T06:41:55;19.40;;;9.17;;
11671;SDS011;5892;43.412;24.612;2023-12-20T06:44:21;17.50;;;8.83;;
11671;SDS011;5892;43.412;24.612;2023-12-20T06:46:48;16.70;;;9.30;;
11671;SDS011;5892;43.412;24.612;2023-12-20T06:49:15;16.17;;;9.77;;
11671;SDS011;5892;43.412;24.612;2023-12-20T06:51:42;16.80;;;10.23;;
11671;SDS011;5892;43.412;24.612;2023-12-20T06:54:09;17.17;;;10.50;;
11671;SDS011;5892;43.412;24.612;2023-12-20T06:56:36;26.27;;;12.73;;
11671;SDS011;5892;43.412;24.612;2023-12-20T06:59:05;23.10;;;13.70;;
11671;SDS011;5892;43.412;24.612;2023-12-20T07:01:32;29.63;;;14.80;;
11671;SDS011;5892;43.412;24.612;2023-12-20T07:03:59;24.73;;;15.17;;
11671;SDS011;5892;43.412;24.612;2023-12-20T07:06:26;35.13;;;14.47;;
11671;SDS011;5892;43.412;24.612;2023-12-20T07:08:54;26.57;;;11.77;;
11671;SDS011;5892;43.412;24.612;2023-12-20T07:11:21;19.20;;;10.43;;
11671;SDS011;5892;43.412;24.612;2023-12-20T07:13:49;17.63;;;8.63;;
11671;SDS011;5892;43.412;24.612;2023-12-20T07:19:00;17.40;;;9.10;;
11671;SDS011;5892;43.412;24.612;2023-12-20T07:21:26;21.87;;;10.10;;
11671;SDS011;5892;43.412;24.612;2023-12-20T07:23:53;14.50;;;9.23;;
11671;SDS011;5892;43.412;24.612;2023-12-20T07:26:20;22.47;;;12.13;;
11671;SDS011;5892;43.412;24.612;2023-12-20T07:28:48;16.40;;;10.33;;
11671;SDS011;5892;43.412;24.612;2023-12-20T07:31:15;18.43;;;10.23;;
11671;SDS011;5892;43.412;24.612;2023-12-20T07:33:44;16.07;;;11.23;;
11671;SDS011;5892;43.412;24.612;2023-12-20T07:36:11;21.90;;;11.40;;
11671;SDS011;5892;43.412;24.612;2023-12-20T07:38:38;22.20;;;12.30;;
11671;SDS011;5892;43.412;24.612;2023-12-20T07:41:08;21.63;;;11.77;;
11671;SDS011;5892;43.412;24.612;2023-12-20T07:43:35;19.47;;;11.90;;
11671;SDS011;5892;43.412;24.612;2023-12-20T07:46:05;18.83;;;10.70;;
11671;SDS011;5892;43.412;24.612;2023-12-20T07:48:33;16.57;;;10.70;;
11671;SDS011;5892;43.412;24.612;2023-12-20T07:51:02;19.13;;;10.80;;
11671;SDS011;5892;43.412;24.612;2023-12-20T07:53:30;14.30;;;9.33;;
11671;SDS011;5892;43.412;24.612;2023-12-20T07:55:57;16.40;;;8.70;;
11671;SDS011;5892;43.412;24.612;2023-12-20T07:58:24;18.77;;;11.23;;
11671;SDS011;5892;43.412;24.612;2023-12-20T08:00:51;23.13;;;11.60;;
11671;SDS011;5892;43.412;24.612;2023-12-20T08:03:18;19.87;;;11.97;;
11671;SDS011;5892;43.412;24.612;2023-12-20T08:05:46;18.10;;;12.60;;
11671;SDS011;5892;43.412;24.612;2023-12-20T08:08:15;22.90;;;12.57;;
11671;SDS011;5892;43.412;24.612;2023-12-20T08:10:42;18.43;;;13.67;;
11671;SDS011;5892;43.412;24.612;2023-12-20T08:13:09;25.47;;;14.90;;
11671;SDS011;5892;43.412;24.612;2023-12-20T08:15:36;24.63;;;15.73;;
11671;SDS011;5892;43.412;24.612;2023-12-20T08:18:03;28.87;;;15.00;;
11671;SDS011;5892;43.412;24.612;2023-12-20T08:20:31;24.77;;;14.77;;
11671;SDS011;5892;43.412;24.612;2023-12-20T08:22:58;23.87;;;15.03;;
11671;SDS011;5892;43.412;24.612;2023-12-20T08:25:27;23.83;;;15.13;;
11671;SDS011;5892;43.412;24.612;2023-12-20T08:27:53;25.63;;;17.07;;
11671;SDS011;5892;43.412;24.612;2023-12-20T08:30:20;39.13;;;17.20;;
11671;SDS011;5892;43.412;24.612;2023-12-20T08:32:47;28.93;;;17.73;;
11671;SDS011;5892;43.412;24.612;2023-12-20T08:35:14;27.77;;;17.43;;
11671;SDS011;5892;43.412;24.612;2023-12-20T08:37:41;25.00;;;16.80;;
11671;SDS011;5892;43.412;24.612;2023-12-20T08:40:08;31.93;;;16.67;;
11671;SDS011;5892;43.412;24.612;2023-12-20T08:42:37;31.43;;;18.37;;
11671;SDS011;5892;43.412;24.612;2023-12-20T08:45:04;28.07;;;16.83;;
11671;SDS011;5892;43.412;24.612;2023-12-20T08:47:33;29.60;;;17.13;;
11671;SDS011;5892;43.412;24.612;2023-12-20T08:50:01;42.40;;;20.30;;
11671;SDS011;5892;43.412;24.612;2023-12-20T08:52:28;35.17;;;21.57;;
11671;SDS011;5892;43.412;24.612;2023-12-20T08:54:55;38.57;;;22.50;;
11671;SDS011;5892;43.412;24.612;2023-12-20T08:57:23;41.60;;;22.47;;
11671;SDS011;5892;43.412;24.612;2023-12-20T08:59:51;31.33;;;22.03;;
11671;SDS011;5892;43.412;24.612;2023-12-20T09:02:19;34.77;;;22.53;;
11671;SDS011;5892;43.412;24.612;2023-12-20T09:04:46;39.10;;;22.57;;
11671;SDS011;5892;43.412;24.612;2023-12-20T09:07:22;45.23;;;24.40;;
11671;SDS011;5892;43.412;24.612;2023-12-20T09:09:49;39.93;;;23.07;;
11671;SDS011;5892;43.412;24.612;2023-12-20T09:12:17;29.70;;;15.47;;
11671;SDS011;5892;43.412;24.612;2023-12-20T09:14:44;33.73;;;17.90;;
11671;SDS011;5892;43.412;24.612;2023-12-20T09:17:13;27.70;;;16.97;;
11671;SDS011;5892;43.412;24.612;2023-12-20T09:19:42;31.37;;;19.23;;
11671;SDS011;5892;43.412;24.612;2023-12-20T09:22:09;36.07;;;22.70;;
11671;SDS011;5892;43.412;24.612;2023-12-20T09:24:39;42.93;;;23.73;;
11671;SDS011;5892;43.412;24.612;2023-12-20T09:27:05;28.00;;;20.07;;
11671;SDS011;5892;43.412;24.612;2023-12-20T09:29:34;39.87;;;21.03;;
11671;SDS011;5892;43.412;24.612;2023-12-20T09:32:01;39.97;;;24.07;;
11671;SDS011;5892;43.412;24.612;2023-12-20T09:34:29;42.33;;;24.67;;
11671;SDS011;5892;43.412;24.612;2023-12-20T09:36:56;40.27;;;24.30;;
11671;SDS011;5892;43.412;24.612;2023-12-20T09:39:23;31.50;;;22.90;;
11671;SDS011;5892;43.412;24.612;2023-12-20T09:41:51;28.77;;;19.90;;
11671;SDS011;5892;43.412;24.612;2023-12-20T09:44:27;30.50;;;17.60;;
11671;SDS011;5892;43.412;24.612;2023-12-20T09:46:55;22.03;;;14.40;;
11671;SDS011;5892;43.412;24.612;2023-12-20T09:49:23;46.43;;;32.53;;
11671;SDS011;5892;43.412;24.612;2023-12-20T09:51:55;57.57;;;30.53;;
11671;SDS011;5892;43.412;24.612;2023-12-20T09:54:22;45.37;;;27.57;;
11671;SDS011;5892;43.412;24.612;2023-12-20T09:56:50;43.17;;;26.77;;
11671;SDS011;5892;43.412;24.612;2023-12-20T09:59:17;42.13;;;25.20;;
11671;SDS011;5892;43.412;24.612;2023-12-20T10:01:44;42.17;;;24.20;;
11671;SDS011;5892;43.412;24.612;2023-12-20T10:04:12;35.00;;;24.67;;
11671;SDS011;5892;43.412;24.612;2023-12-20T10:06:39;47.53;;;27.57;;
11671;SDS011;5892;43.412;24.612;2023-12-20T10:09:10;40.87;;;27.43;;
11671;SDS011;5892;43.412;24.612;2023-12-20T10:11:38;43.43;;;29.13;;
11671;SDS011;5892;43.412;24.612;2023-12-20T10:14:06;42.23;;;29.27;;
11671;SDS011;5892;43.412;24.612;2023-12-20T10:16:33;47.43;;;29.23;;
11671;SDS011;5892;43.412;24.612;2023-12-20T10:19:00;44.13;;;28.50;;
11671;SDS011;5892;43.412;24.612;2023-12-20T10:21:27;47.73;;;28.03;;
11671;SDS011;5892;43.412;24.612;2023-12-20T10:23:54;42.40;;;26.73;;
11671;SDS011;5892;43.412;24.612;2023-12-20T10:26:23;38.30;;;25.40;;
11671;SDS011;5892;43.412;24.612;2023-12-20T10:28:53;37.97;;;24.67;;
11671;SDS011;5892;43.412;24.612;2023-12-20T10:31:27;45.03;;;22.07;;
11671;SDS011;5892;43.412;24.612;2023-12-20T10:33:55;37.10;;;23.93;;
11671;SDS011;5892;43.412;24.612;2023-12-20T10:36:24;31.23;;;21.43;;
11671;SDS011;5892;43.412;24.612;2023-12-20T10:38:52;34.60;;;22.17;;
11671;SDS011;5892;43.412;24.612;2023-12-20T10:41:21;42.10;;;22.07;;
11671;SDS011;5892;43.412;24.612;2023-12-20T10:43:56;51.83;;;23.73;;
11671;SDS011;5892;43.412;24.612;2023-12-20T10:46:27;34.50;;;21.60;;
11671;SDS011;5892;43.412;24.612;2023-12-20T10:48:55;39.97;;;22.00;;
11671;SDS011;5892;43.412;24.612;2023-12-20T10:51:23;45.67;;;22.93;;
11671;SDS011;5892;43.412;24.612;2023-12-20T10:53:51;41.07;;;23.17;;
11671;SDS011;5892;43.412;24.612;2023-12-20T10:56:19;44.43;;;27.20;;
11671;SDS011;5892;43.412;24.612;2023-12-20T10:58:50;43.90;;;28.87;;
11671;SDS011;5892;43.412;24.612;2023-12-20T11:01:17;45.03;;;29.60;;
11671;SDS011;5892;43.412;24.612;2023-12-20T11:03:48;53.20;;;31.30;;
11671;SDS011;5892;43.412;24.612;2023-12-20T11:06:19;47.60;;;30.07;;
11671;SDS011;5892;43.412;24.612;2023-12-20T11:08:57;37.83;;;28.27;;
11671;SDS011;5892;43.412;24.612;2023-12-20T11:11:35;49.43;;;30.03;;
11671;SDS011;5892;43.412;24.612;2023-12-20T11:14:14;39.27;;;26.20;;
11671;SDS011;5892;43.412;24.612;2023-12-20T11:16:45;43.77;;;25.43;;
11671;SDS011;5892;43.412;24.612;2023-12-20T11:19:12;36.53;;;23.53;;
11671;SDS011;5892;43.412;24.612;2023-12-20T11:21:40;34.30;;;22.90;;
11671;SDS011;5892;43.412;24.612;2023-12-20T11:24:07;37.97;;;22.63;;
11671;SDS011;5892;43.412;24.612;2023-12-20T11:26:34;28.00;;;19.83;;
11671;SDS011;5892;43.412;24.612;2023-12-20T11:32:02;18.53;;;11.63;;
11671;SDS011;5892;43.412;24.612;2023-12-20T11:34:32;16.60;;;11.00;;
11671;SDS011;5892;43.412;24.612;2023-12-20T11:37:02;13.47;;;9.30;;
11671;SDS011;5892;43.412;24.612;2023-12-20T11:39:29;14.20;;;8.43;;
11671;SDS011;5892;43.412;24.612;2023-12-20T11:41:57;14.13;;;7.87;;
11671;SDS011;5892;43.412;24.612;2023-12-20T11:44:31;10.60;;;7.93;;
11671;SDS011;5892;43.412;24.612;2023-12-20T11:46:58;10.37;;;7.33;;
11671;SDS011;5892;43.412;24.612;2023-12-20T11:49:27;10.03;;;6.67;;
11671;SDS011;5892;43.412;24.612;2023-12-20T11:51:57;7.73;;;6.70;;
11671;SDS011;5892;43.412;24.612;2023-12-20T11:54:25;11.53;;;10.13;;
11671;SDS011;5892;43.412;24.612;2023-12-20T11:56:52;14.47;;;11.00;;
11671;SDS011;5892;43.412;24.612;2023-12-20T11:59:19;12.73;;;6.93;;
11671;SDS011;5892;43.412;24.612;2023-12-20T12:01:49;7.50;;;5.77;;
11671;SDS011;5892;43.412;24.612;2023-12-20T12:04:17;8.27;;;5.43;;
11671;SDS011;5892;43.412;24.612;2023-12-20T12:06:45;8.40;;;5.50;;
11671;SDS011;5892;43.412;24.612;2023-12-20T12:09:12;9.23;;;5.50;;
11671;SDS011;5892;43.412;24.612;2023-12-20T12:11:40;9.60;;;5.50;;
11671;SDS011;5892;43.412;24.612;2023-12-20T12:14:07;11.93;;;5.43;;
11671;SDS011;5892;43.412;24.612;2023-12-20T12:16:34;11.20;;;5.60;;
11671;SDS011;5892;43.412;24.612;2023-12-20T12:19:01;8.83;;;6.07;;
11671;SDS011;5892;43.412;24.612;2023-12-20T12:21:29;14.10;;;6.77;;
11671;SDS011;5892;43.412;24.612;2023-12-20T12:24:07;12.03;;;7.13;;
11671;SDS011;5892;43.412;24.612;2023-12-20T12:26:35;8.63;;;6.10;;
11671;SDS011;5892;43.412;24.612;2023-12-20T12:29:02;9.87;;;5.87;;
11671;SDS011;5892;43.412;24.612;2023-12-20T12:31:30;15.53;;;6.13;;
11671;SDS011;5892;43.412;24.612;2023-12-20T12:33:57;7.63;;;5.40;;
11671;SDS011;5892;43.412;24.612;2023-12-20T12:36:24;10.23;;;6.10;;
11671;SDS011;5892;43.412;24.612;2023-12-20T12:38:51;11.23;;;5.20;;
11671;SDS011;5892;43.412;24.612;2023-12-20T12:41:19;8.10;;;5.20;;
11671;SDS011;5892;43.412;24.612;2023-12-20T12:43:46;10.23;;;5.20;;
11671;SDS011;5892;43.412;24.612;2023-12-20T12:46:13;8.23;;;5.40;;
11671;SDS011;5892;43.412;24.612;2023-12-20T12:48:40;10.37;;;5.53;;
11671;SDS011;5892;43.412;24.612;2023-12-20T12:51:07;7.50;;;4.30;;
11671;SDS011;5892;43.412;24.612;2023-12-20T12:53:38;11.30;;;5.80;;
11671;SDS011;5892;43.412;24.612;2023-12-20T12:56:05;9.73;;;5.67;;
11671;SDS011;5892;43.412;24.612;2023-12-20T12:58:33;9.57;;;5.50;;
11671;SDS011;5892;43.412;24.612;2023-12-20T13:01:00;9.50;;;4.60;;
11671;SDS011;5892;43.412;24.612;2023-12-20T13:03:28;14.27;;;6.73;;
11671;SDS011;5892;43.412;24.612;2023-12-20T13:05:55;12.50;;;7.03;;
11671;SDS011;5892;43.412;24.612;2023-12-20T13:08:26;13.03;;;7.20;;
11671;SDS011;5892;43.412;24.612;2023-12-20T13:10:53;12.73;;;6.60;;
11671;SDS011;5892;43.412;24.612;2023-12-20T13:13:20;16.23;;;8.27;;
11671;SDS011;5892;43.412;24.612;2023-12-20T13:15:49;11.27;;;7.17;;
11671;SDS011;5892;43.412;24.612;2023-12-20T13:18:20;8.77;;;5.60;;
11671;SDS011;5892;43.412;24.612;2023-12-20T13:20:46;7.77;;;5.40;;
11671;SDS011;5892;43.412;24.612;2023-12-20T13:23:14;8.17;;;5.87;;
11671;SDS011;5892;43.412;24.612;2023-12-20T13:25:41;7.80;;;4.70;;
11671;SDS011;5892;43.412;24.612;2023-12-20T13:28:08;8.70;;;5.50;;
11671;SDS011;5892;43.412;24.612;2023-12-20T13:30:35;8.73;;;5.00;;
11671;SDS011;5892;43.412;24.612;2023-12-20T13:33:03;11.17;;;4.87;;
11671;SDS011;5892;43.412;24.612;2023-12-20T13:35:30;9.57;;;4.30;;
11671;SDS011;5892;43.412;24.612;2023-12-20T13:37:58;8.33;;;4.30;;
11671;SDS011;5892;43.412;24.612;2023-12-20T13:40:27;6.80;;;4.40;;
11671;SDS011;5892;43.412;24.612;2023-12-20T13:42:54;5.27;;;3.40;;
11671;SDS011;5892;43.412;24.612;2023-12-20T13:45:21;10.13;;;3.90;;
11671;SDS011;5892;43.412;24.612;2023-12-20T13:47:48;8.87;;;4.43;;
11671;SDS011;5892;43.412;24.612;2023-12-20T13:50:17;8.80;;;4.50;;
11671;SDS011;5892;43.412;24.612;2023-12-20T13:52:44;7.67;;;6.37;;
11671;SDS011;5892;43.412;24.612;2023-12-20T13:55:11;13.93;;;6.40;;
11671;SDS011;5892;43.412;24.612;2023-12-20T13:57:38;10.03;;;6.00;;
11671;SDS011;5892;43.412;24.612;2023-12-20T14:00:07;11.27;;;6.70;;
11671;SDS011;5892;43.412;24.612;2023-12-20T14:02:39;8.23;;;5.50;;
11671;SDS011;5892;43.412;24.612;2023-12-20T14:05:07;8.10;;;6.27;;
11671;SDS011;5892;43.412;24.612;2023-12-20T14:07:36;9.37;;;5.97;;
11671;SDS011;5892;43.412;24.612;2023-12-20T14:10:03;6.90;;;5.97;;
11671;SDS011;5892;43.412;24.612;2023-12-20T14:12:31;8.60;;;5.93;;
11671;SDS011;5892;43.412;24.612;2023-12-20T14:15:01;8.23;;;6.17;;
11671;SDS011;5892;43.412;24.612;2023-12-20T14:17:28;15.07;;;11.17;;
11671;SDS011;5892;43.412;24.612;2023-12-20T14:19:57;12.93;;;8.00;;
11671;SDS011;5892;43.412;24.612;2023-12-20T14:22:23;13.50;;;7.20;;
11671;SDS011;5892;43.412;24.612;2023-12-20T14:24:52;9.37;;;6.87;;
11671;SDS011;5892;43.412;24.612;2023-12-20T14:27:19;16.07;;;7.40;;
11671;SDS011;5892;43.412;24.612;2023-12-20T14:29:49;9.80;;;7.57;;
11671;SDS011;5892;43.412;24.612;2023-12-20T14:32:16;10.60;;;9.00;;
11671;SDS011;5892;43.412;24.612;2023-12-20T14:34:43;11.97;;;10.03;;
11671;SDS011;5892;43.412;24.612;2023-12-20T14:37:10;16.43;;;10.70;;
11671;SDS011;5892;43.412;24.612;2023-12-20T14:39:37;12.23;;;9.60;;
11671;SDS011;5892;43.412;24.612;2023-12-20T14:42:08;14.97;;;10.23;;
11671;SDS011;5892;43.412;24.612;2023-12-20T14:44:37;11.40;;;8.60;;